KMGW

Morgantown Municipal-Walter L Bill Hart Field Airport

Morgantown, West Virginia, USA
KMGW 251720Z 2518/2618 29003KT P6SM OVC025 FM252200 31008KT P6SM OVC008 FM260200 32007KT P6SM BKN015 FM261500 27004KT P6SM SCT050
Issued Valid From Valid To
Apr-25 @ 17:20 UTC
(40 minutes ago)
Apr-25 @ 18:00 UTC
(a few seconds ago)
Apr-26 @ 18:00 UTC
(in 24 hours)
Apr-25 @ 18:00 to Apr-25 @ 22:00
KMGW 251720Z 2518/2618 29003KT P6SM OVC025
Wind Visibility Clouds
290° at 3 knots Greater than 6 miles
  • Overcast at 2,500' AGL
From Apr-25 @ 22:00 to Apr-26 @ 02:00
FM252200 31008KT P6SM OVC008
Wind Visibility Clouds
310° at 8 knots Greater than 6 miles
  • Overcast at 800' AGL
From Apr-26 @ 02:00 to Apr-26 @ 15:00
FM260200 32007KT P6SM BKN015
Wind Visibility Clouds
320° at 7 knots Greater than 6 miles
  • Broken at 1,500' AGL
From Apr-26 @ 15:00 to Apr-26 @ 18:00
FM261500 27004KT P6SM SCT050
Wind Visibility Clouds
270° at 4 knots Greater than 6 miles
  • Scattered at 5,000' AGL
KMGW 251720Z 2518/2618 29003KT P6SM OVC025 FM252200 31008KT P6SM OVC008 FM260200 32007KT P6SM BKN015 FM261500 27004KT P6SM SCT050
Issued Apr-25 @ 17:20 UTC
(40 minutes ago)
Valid From Apr-25 @ 18:00 UTC
(a few seconds ago)
Valid To Apr-26 @ 18:00 UTC
(in 24 hours)
Apr-25 @ 18:00 - Apr-25 @ 22:00
Wind Visibility
290° at 3 knots Greater than 6 miles
Clouds
  • Overcast at 2,500' AGL
From Apr-25 @ 22:00 - Apr-26 @ 02:00
Wind Visibility
310° at 8 knots Greater than 6 miles
Clouds
  • Overcast at 800' AGL
From Apr-26 @ 02:00 - Apr-26 @ 15:00
Wind Visibility
320° at 7 knots Greater than 6 miles
Clouds
  • Broken at 1,500' AGL
From Apr-26 @ 15:00 - Apr-26 @ 18:00
Wind Visibility
270° at 4 knots Greater than 6 miles
Clouds
  • Scattered at 5,000' AGL